UAE69M OMDB-HAAB
Flight info
| Callsign | UAE69M |
|---|---|
| Flight time | N/A |
| Altitude | 39000 |
| Route | ANVIX R401 GIDIS G783 UKRAG L710 KUKDI/N0492F380 B400 NODMA L702 ULALI T701 UKTAL/N0483F400 T701 TORBA UB535 LAKBE LAKBE2A |
| Aircraft | A359/H-SDE2E3GHIJ3J4J5LM1ORWXY/LB1D1 |
Departure
| Time | N/A |
|---|---|
| Airport | Dubai International Airport (OMDB) |
Arrival
| Time | 2026-04-30 20:03 |
|---|---|
| Airport | Addis Ababa Bole International Airport (HAAB) |
| Time | Latitude | Longitude | Altitude | Speed | Heading |
|---|---|---|---|---|---|
| 2026-04-30 17:39 | 14.98330 | 52.55821 | 38918 ft | 479 kts | 244° |
| 2026-04-30 17:42 | 14.84174 | 52.24539 | 38918 ft | 479 kts | 243° |
| 2026-04-30 17:43 | 14.76985 | 52.09002 | 38915 ft | 479 kts | 243° |
| 2026-04-30 17:44 | 14.68431 | 51.90489 | 38915 ft | 479 kts | 243° |
| 2026-04-30 17:47 | 14.55808 | 51.62895 | 38912 ft | 480 kts | 244° |
| 2026-04-30 17:48 | 14.45893 | 51.41248 | 38909 ft | 480 kts | 244° |
| 2026-04-30 17:50 | 14.34519 | 51.16492 | 38907 ft | 480 kts | 243° |
| 2026-04-30 17:52 | 14.25909 | 50.97798 | 38908 ft | 480 kts | 243° |
| 2026-04-30 17:54 | 14.13460 | 50.70868 | 38901 ft | 481 kts | 243° |
| 2026-04-30 17:56 | 14.00847 | 50.46665 | 38901 ft | 480 kts | 239° |
| 2026-04-30 17:58 | 13.91094 | 50.28561 | 38899 ft | 481 kts | 240° |
| 2026-04-30 18:00 | 13.78137 | 50.04558 | 38898 ft | 480 kts | 239° |
| 2026-04-30 18:01 | 13.70068 | 49.89510 | 38896 ft | 480 kts | 239° |
| 2026-04-30 18:02 | 13.60372 | 49.71471 | 38895 ft | 481 kts | 239° |
| 2026-04-30 18:04 | 13.50649 | 49.53427 | 38897 ft | 481 kts | 239° |
| 2026-04-30 18:06 | 13.37656 | 49.29373 | 38900 ft | 482 kts | 239° |
| 2026-04-30 18:08 | 13.26342 | 49.08347 | 38897 ft | 482 kts | 240° |
| 2026-04-30 18:10 | 13.13456 | 48.84220 | 38898 ft | 482 kts | 240° |
| 2026-04-30 18:11 | 13.02140 | 48.63111 | 38899 ft | 483 kts | 239° |
| 2026-04-30 18:13 | 12.94044 | 48.48040 | 38897 ft | 483 kts | 239° |
| 2026-04-30 18:14 | 12.85957 | 48.33010 | 38896 ft | 483 kts | 239° |
| 2026-04-30 18:15 | 12.76217 | 48.14945 | 38896 ft | 483 kts | 239° |
| 2026-04-30 18:16 | 12.69730 | 48.02932 | 38897 ft | 482 kts | 239° |
| 2026-04-30 18:17 | 12.66478 | 47.96916 | 38892 ft | 482 kts | 239° |
| 2026-04-30 18:18 | 12.61602 | 47.87904 | 38892 ft | 482 kts | 239° |
| 2026-04-30 18:18 | 12.58345 | 47.81890 | 38900 ft | 482 kts | 239° |
| 2026-04-30 18:19 | 12.55096 | 47.75892 | 38894 ft | 483 kts | 239° |
| 2026-04-30 18:19 | 12.51833 | 47.69875 | 38892 ft | 483 kts | 239° |
| 2026-04-30 18:20 | 12.48578 | 47.63875 | 38895 ft | 483 kts | 239° |
| 2026-04-30 18:20 | 12.45311 | 47.57858 | 38890 ft | 483 kts | 239° |
| 2026-04-30 18:21 | 12.42135 | 47.51846 | 38892 ft | 485 kts | 244° |
| 2026-04-30 18:21 | 12.40253 | 47.45182 | 38893 ft | 487 kts | 262° |
| 2026-04-30 18:22 | 12.39666 | 47.38257 | 38891 ft | 489 kts | 265° |
| 2026-04-30 18:22 | 12.39051 | 47.27885 | 38890 ft | 489 kts | 265° |
| 2026-04-30 18:23 | 12.38617 | 47.20950 | 38893 ft | 489 kts | 265° |
| 2026-04-30 18:23 | 12.38161 | 47.14010 | 38890 ft | 489 kts | 265° |
| 2026-04-30 18:24 | 12.37470 | 47.03613 | 38894 ft | 489 kts | 264° |
| 2026-04-30 18:25 | 12.37031 | 46.96665 | 38896 ft | 489 kts | 265° |
| 2026-04-30 18:25 | 12.36378 | 46.86270 | 38898 ft | 489 kts | 264° |
| 2026-04-30 18:26 | 12.35715 | 46.75843 | 38896 ft | 490 kts | 264° |
| 2026-04-30 18:27 | 12.35046 | 46.65396 | 38896 ft | 491 kts | 264° |
| 2026-04-30 18:28 | 12.34373 | 46.54956 | 38899 ft | 491 kts | 264° |
| 2026-04-30 18:28 | 12.33696 | 46.44495 | 38896 ft | 491 kts | 264° |
| 2026-04-30 18:29 | 12.32786 | 46.30559 | 38897 ft | 492 kts | 264° |
| 2026-04-30 18:30 | 12.31868 | 46.16596 | 38900 ft | 492 kts | 264° |
| 2026-04-30 18:31 | 12.31175 | 46.06126 | 38895 ft | 492 kts | 264° |
| 2026-04-30 18:32 | 12.30477 | 45.95648 | 38888 ft | 493 kts | 264° |
| 2026-04-30 18:33 | 12.29775 | 45.85155 | 38885 ft | 493 kts | 264° |
| 2026-04-30 18:33 | 12.29068 | 45.74667 | 38878 ft | 493 kts | 264° |
| 2026-04-30 18:34 | 12.28357 | 45.64165 | 38882 ft | 493 kts | 264° |
| 2026-04-30 18:35 | 12.27881 | 45.57173 | 38883 ft | 494 kts | 264° |
| 2026-04-30 18:35 | 12.27402 | 45.50168 | 38877 ft | 494 kts | 264° |
| 2026-04-30 18:36 | 12.26681 | 45.39663 | 38877 ft | 494 kts | 264° |
| 2026-04-30 18:37 | 12.25995 | 45.29170 | 38880 ft | 494 kts | 265° |
| 2026-04-30 18:37 | 12.25556 | 45.22205 | 38876 ft | 494 kts | 265° |
| 2026-04-30 18:38 | 12.25109 | 45.15201 | 38881 ft | 494 kts | 265° |
| 2026-04-30 18:38 | 12.24654 | 45.08151 | 38875 ft | 493 kts | 265° |
| 2026-04-30 18:39 | 12.24202 | 45.01199 | 38881 ft | 493 kts | 265° |
| 2026-04-30 18:39 | 12.23745 | 44.94211 | 38882 ft | 493 kts | 265° |
| 2026-04-30 18:40 | 12.23287 | 44.87213 | 38876 ft | 493 kts | 265° |
| 2026-04-30 18:40 | 12.22828 | 44.80229 | 38884 ft | 493 kts | 265° |
| 2026-04-30 18:41 | 12.22366 | 44.73235 | 38878 ft | 493 kts | 265° |
| 2026-04-30 18:41 | 12.21978 | 44.67377 | 38882 ft | 493 kts | 265° |
| 2026-04-30 18:42 | 12.21518 | 44.60452 | 38873 ft | 493 kts | 265° |
| 2026-04-30 18:42 | 12.20818 | 44.49963 | 38876 ft | 493 kts | 265° |
| 2026-04-30 18:45 | 12.18217 | 44.11548 | 38874 ft | 493 kts | 265° |
| 2026-04-30 18:46 | 12.17180 | 44.04655 | 38883 ft | 491 kts | 252° |
| 2026-04-30 18:46 | 12.14242 | 43.98396 | 38883 ft | 489 kts | 236° |
| 2026-04-30 18:47 | 12.10427 | 43.92642 | 38886 ft | 490 kts | 234° |
| 2026-04-30 18:47 | 12.06520 | 43.86942 | 38890 ft | 490 kts | 234° |
| 2026-04-30 18:48 | 12.02622 | 43.81226 | 38885 ft | 490 kts | 234° |
| 2026-04-30 18:48 | 11.98752 | 43.75512 | 38888 ft | 490 kts | 234° |
| 2026-04-30 18:49 | 11.94878 | 43.69783 | 38889 ft | 490 kts | 234° |
| 2026-04-30 18:49 | 11.91064 | 43.64147 | 38889 ft | 489 kts | 234° |
| 2026-04-30 18:50 | 11.87286 | 43.58569 | 38890 ft | 489 kts | 234° |
| 2026-04-30 18:50 | 11.83398 | 43.52712 | 38888 ft | 489 kts | 236° |
| 2026-04-30 18:51 | 11.79636 | 43.46948 | 38890 ft | 489 kts | 236° |
| 2026-04-30 18:51 | 11.75836 | 43.41153 | 38891 ft | 489 kts | 235° |
| 2026-04-30 18:52 | 11.72050 | 43.35405 | 38891 ft | 489 kts | 235° |
| 2026-04-30 18:52 | 11.68276 | 43.29686 | 38897 ft | 489 kts | 235° |
| 2026-04-30 18:53 | 11.64742 | 43.24334 | 38896 ft | 489 kts | 235° |
| 2026-04-30 18:53 | 11.60947 | 43.18588 | 38895 ft | 489 kts | 235° |
| 2026-04-30 18:54 | 11.57136 | 43.12820 | 38908 ft | 489 kts | 235° |
| 2026-04-30 18:54 | 11.53563 | 43.06933 | 38910 ft | 490 kts | 240° |
| 2026-04-30 18:55 | 11.50239 | 43.00850 | 38913 ft | 490 kts | 240° |
| 2026-04-30 18:55 | 11.45278 | 42.91736 | 38922 ft | 491 kts | 240° |
| 2026-04-30 18:56 | 11.40317 | 42.82617 | 38929 ft | 491 kts | 240° |
| 2026-04-30 18:57 | 11.35336 | 42.73468 | 38930 ft | 491 kts | 240° |
| 2026-04-30 18:57 | 11.32050 | 42.67438 | 38933 ft | 490 kts | 239° |
| 2026-04-30 18:58 | 11.27090 | 42.58340 | 38933 ft | 489 kts | 239° |
| 2026-04-30 18:59 | 11.22104 | 42.49205 | 38933 ft | 490 kts | 239° |
| 2026-04-30 19:00 | 11.15499 | 42.37112 | 38918 ft | 491 kts | 239° |
| 2026-04-30 19:01 | 11.08856 | 42.24967 | 38925 ft | 491 kts | 239° |
| 2026-04-30 19:02 | 11.03873 | 42.15866 | 38910 ft | 491 kts | 239° |
| 2026-04-30 19:03 | 10.97526 | 42.03582 | 38903 ft | 491 kts | 240° |
| 2026-04-30 19:04 | 10.91175 | 41.91270 | 38908 ft | 491 kts | 240° |
| 2026-04-30 19:05 | 10.84993 | 41.79319 | 38902 ft | 490 kts | 240° |
| 2026-04-30 19:06 | 10.78618 | 41.67007 | 38911 ft | 489 kts | 240° |
| 2026-04-30 19:06 | 10.73856 | 41.57826 | 38899 ft | 489 kts | 240° |
| 2026-04-30 19:07 | 10.69107 | 41.48671 | 38912 ft | 487 kts | 240° |
| 2026-04-30 19:08 | 10.62795 | 41.36490 | 38897 ft | 486 kts | 240° |
| 2026-04-30 19:09 | 10.58070 | 41.27398 | 38901 ft | 486 kts | 240° |
| 2026-04-30 19:09 | 10.54899 | 41.21306 | 38901 ft | 486 kts | 240° |
| 2026-04-30 19:10 | 10.48579 | 41.09203 | 38901 ft | 487 kts | 240° |
| 2026-04-30 19:11 | 10.43873 | 41.00186 | 38900 ft | 488 kts | 240° |
| 2026-04-30 19:12 | 10.40708 | 40.94122 | 38894 ft | 488 kts | 240° |
| 2026-04-30 19:12 | 10.37523 | 40.88022 | 38891 ft | 488 kts | 240° |
| 2026-04-30 19:13 | 10.31155 | 40.75833 | 38890 ft | 488 kts | 240° |
| 2026-04-30 19:14 | 10.27967 | 40.69738 | 38895 ft | 489 kts | 240° |
| 2026-04-30 19:14 | 10.24778 | 40.63643 | 38891 ft | 489 kts | 240° |
| 2026-04-30 19:15 | 10.21592 | 40.57557 | 38905 ft | 489 kts | 240° |
| 2026-04-30 19:15 | 10.16797 | 40.48404 | 38924 ft | 489 kts | 240° |
| 2026-04-30 19:16 | 10.13627 | 40.42358 | 38938 ft | 489 kts | 240° |
| 2026-04-30 19:17 | 10.08801 | 40.33160 | 38956 ft | 490 kts | 240° |
| 2026-04-30 19:17 | 10.04021 | 40.24056 | 38985 ft | 490 kts | 240° |
| 2026-04-30 19:18 | 9.99207 | 40.14896 | 38813 ft | 490 kts | 240° |
| 2026-04-30 19:18 | 9.97607 | 40.11852 | 38584 ft | 488 kts | 240° |
| 2026-04-30 19:19 | 9.96014 | 40.08822 | 38357 ft | 487 kts | 240° |
| 2026-04-30 19:19 | 9.94414 | 40.05781 | 38101 ft | 488 kts | 240° |
| 2026-04-30 19:19 | 9.91221 | 39.99714 | 37599 ft | 490 kts | 240° |
| 2026-04-30 19:20 | 9.89604 | 39.96643 | 37358 ft | 491 kts | 240° |
| 2026-04-30 19:20 | 9.88001 | 39.93599 | 37161 ft | 491 kts | 240° |
| 2026-04-30 19:21 | 9.83162 | 39.84412 | 37153 ft | 493 kts | 240° |
| 2026-04-30 19:22 | 9.76702 | 39.72164 | 37199 ft | 492 kts | 240° |
| 2026-04-30 19:23 | 9.67014 | 39.53821 | 36341 ft | 493 kts | 240° |
| 2026-04-30 19:24 | 9.63765 | 39.47677 | 35075 ft | 493 kts | 241° |
| 2026-04-30 19:24 | 9.62149 | 39.44621 | 34566 ft | 491 kts | 242° |
| 2026-04-30 19:24 | 9.58934 | 39.38544 | 33490 ft | 486 kts | 242° |
| 2026-04-30 19:25 | 9.54262 | 39.29714 | 32007 ft | 477 kts | 242° |
| 2026-04-30 19:26 | 9.51139 | 39.23819 | 31032 ft | 472 kts | 242° |
| 2026-04-30 19:26 | 9.48046 | 39.17982 | 29995 ft | 468 kts | 242° |
| 2026-04-30 19:26 | 9.46514 | 39.15093 | 29510 ft | 464 kts | 242° |
| 2026-04-30 19:27 | 9.43481 | 39.09375 | 28549 ft | 457 kts | 242° |
| 2026-04-30 19:27 | 9.40493 | 39.03745 | 27605 ft | 451 kts | 242° |
| 2026-04-30 19:28 | 9.39027 | 39.00983 | 27140 ft | 448 kts | 242° |
| 2026-04-30 19:28 | 9.38533 | 39.00053 | 27002 ft | 447 kts | 242° |
| 2026-04-30 19:29 | 9.38072 | 38.99185 | 26834 ft | 446 kts | 242° |
| 2026-04-30 19:29 | 9.36904 | 38.96985 | 26458 ft | 444 kts | 242° |
| 2026-04-30 19:30 | 9.33034 | 38.89689 | 25316 ft | 435 kts | 242° |
| 2026-04-30 19:30 | 9.30212 | 38.84371 | 24669 ft | 423 kts | 242° |
| 2026-04-30 19:31 | 9.27401 | 38.79075 | 23323 ft | 430 kts | 242° |
| 2026-04-30 19:31 | 9.25989 | 38.76416 | 22809 ft | 427 kts | 242° |
| 2026-04-30 19:31 | 9.23197 | 38.71160 | 21861 ft | 421 kts | 242° |
| 2026-04-30 19:32 | 9.21818 | 38.68566 | 21396 ft | 417 kts | 242° |
| 2026-04-30 19:32 | 9.20454 | 38.66000 | 20931 ft | 413 kts | 242° |
| 2026-04-30 19:32 | 9.19099 | 38.63451 | 20471 ft | 409 kts | 242° |
| 2026-04-30 19:32 | 9.17768 | 38.60947 | 20018 ft | 407 kts | 242° |
| 2026-04-30 19:33 | 9.16432 | 38.58437 | 19556 ft | 404 kts | 242° |
| 2026-04-30 19:33 | 9.15106 | 38.55944 | 19108 ft | 401 kts | 242° |
| 2026-04-30 19:33 | 9.13788 | 38.53466 | 18643 ft | 399 kts | 242° |
| 2026-04-30 19:33 | 9.12476 | 38.51003 | 18162 ft | 396 kts | 242° |
| 2026-04-30 19:34 | 9.11178 | 38.48565 | 17674 ft | 391 kts | 242° |
| 2026-04-30 19:34 | 9.09864 | 38.46174 | 17243 ft | 387 kts | 238° |
| 2026-04-30 19:34 | 9.06483 | 38.42019 | 16379 ft | 379 kts | 229° |
| 2026-04-30 19:35 | 9.04749 | 38.40033 | 16072 ft | 372 kts | 229° |
| 2026-04-30 19:35 | 9.03236 | 38.38293 | 15957 ft | 361 kts | 229° |
| 2026-04-30 19:35 | 9.01427 | 38.36586 | 15826 ft | 348 kts | 213° |
| 2026-04-30 19:35 | 8.99228 | 38.35733 | 15671 ft | 337 kts | 187° |
| 2026-04-30 19:36 | 8.96945 | 38.35922 | 15524 ft | 324 kts | 160° |
| 2026-04-30 19:36 | 8.94901 | 38.36780 | 15387 ft | 314 kts | 154° |
| 2026-04-30 19:36 | 8.91035 | 38.38562 | 15041 ft | 298 kts | 154° |
| 2026-04-30 19:37 | 8.89325 | 38.39699 | 14752 ft | 293 kts | 131° |
| 2026-04-30 19:37 | 8.88352 | 38.41447 | 14484 ft | 284 kts | 102° |
| 2026-04-30 19:37 | 8.88110 | 38.43403 | 14225 ft | 279 kts | 91° |
| 2026-04-30 19:37 | 8.88009 | 38.45328 | 14078 ft | 270 kts | 91° |
| 2026-04-30 19:38 | 8.87905 | 38.47089 | 13953 ft | 262 kts | 91° |
| 2026-04-30 19:38 | 8.87791 | 38.48897 | 13777 ft | 255 kts | 92° |
| 2026-04-30 19:38 | 8.87677 | 38.50665 | 13541 ft | 250 kts | 92° |
| 2026-04-30 19:38 | 8.87561 | 38.52410 | 13289 ft | 247 kts | 92° |
| 2026-04-30 19:39 | 8.87446 | 38.54135 | 12987 ft | 246 kts | 92° |
| 2026-04-30 19:39 | 8.87331 | 38.55859 | 12576 ft | 251 kts | 92° |
| 2026-04-30 19:39 | 8.87211 | 38.57649 | 12128 ft | 255 kts | 92° |
| 2026-04-30 19:39 | 8.87108 | 38.59455 | 11700 ft | 259 kts | 89° |
| 2026-04-30 19:40 | 8.87526 | 38.61205 | 11268 ft | 259 kts | 58° |
| 2026-04-30 19:40 | 8.88790 | 38.62497 | 10871 ft | 262 kts | 37° |
| 2026-04-30 19:40 | 8.90295 | 38.63558 | 10446 ft | 266 kts | 36° |
| 2026-04-30 19:40 | 8.91799 | 38.64616 | 10027 ft | 268 kts | 37° |
| 2026-04-30 19:41 | 8.93072 | 38.65976 | 9611 ft | 266 kts | 58° |
| 2026-04-30 19:41 | 8.93986 | 38.67555 | 9465 ft | 247 kts | 61° |
| 2026-04-30 19:41 | 8.94682 | 38.69018 | 9464 ft | 219 kts | 70° |
| 2026-04-30 19:41 | 8.95104 | 38.70406 | 9416 ft | 199 kts | 74° |
| 2026-04-30 19:42 | 8.95505 | 38.71709 | 9103 ft | 190 kts | 72° |
| 2026-04-30 19:42 | 8.95864 | 38.72957 | 8736 ft | 184 kts | 75° |
| 2026-04-30 19:42 | 8.96206 | 38.74152 | 8522 ft | 170 kts | 73° |
| 2026-04-30 19:42 | 8.96452 | 38.74985 | 8342 ft | 164 kts | 72° |
| 2026-04-30 19:43 | 8.96717 | 38.75902 | 8181 ft | 156 kts | 71° |
| 2026-04-30 19:43 | 8.97030 | 38.76976 | 7916 ft | 160 kts | 70° |
| 2026-04-30 19:43 | 8.97324 | 38.78009 | 7715 ft | 162 kts | 70° |
| 2026-04-30 19:44 | 8.97893 | 38.79932 | 7639 ft | 153 kts | 69° |
| 2026-04-30 19:44 | 8.98194 | 38.80896 | 7813 ft | 136 kts | 68° |
| 2026-04-30 19:44 | 8.98488 | 38.81850 | 8206 ft | 147 kts | 70° |
| 2026-04-30 19:44 | 8.98789 | 38.82877 | 8693 ft | 159 kts | 72° |
| 2026-04-30 19:45 | 8.99100 | 38.83979 | 9213 ft | 171 kts | 74° |
| 2026-04-30 19:45 | 8.99437 | 38.85189 | 9715 ft | 185 kts | 74° |
| 2026-04-30 19:45 | 8.99807 | 38.86486 | 10248 ft | 199 kts | 73° |
| 2026-04-30 19:45 | 9.00228 | 38.87869 | 10822 ft | 212 kts | 72° |
| 2026-04-30 19:46 | 9.00768 | 38.89306 | 11319 ft | 229 kts | 58° |
| 2026-04-30 19:46 | 9.01968 | 38.90514 | 11516 ft | 261 kts | 38° |
| 2026-04-30 19:46 | 9.03453 | 38.91812 | 11314 ft | 304 kts | 45° |
| 2026-04-30 19:46 | 9.04922 | 38.93505 | 11387 ft | 331 kts | 52° |
| 2026-04-30 19:47 | 9.06148 | 38.95527 | 11749 ft | 345 kts | 65° |
| 2026-04-30 19:47 | 9.06762 | 38.97026 | 11925 ft | 356 kts | 69° |
| 2026-04-30 19:47 | 9.07560 | 39.00281 | 12014 ft | 347 kts | 84° |
| 2026-04-30 19:47 | 9.07408 | 39.02653 | 12023 ft | 331 kts | 102° |
| 2026-04-30 19:48 | 9.06572 | 39.04757 | 12013 ft | 316 kts | 120° |
| 2026-04-30 19:48 | 9.05212 | 39.06380 | 12010 ft | 304 kts | 138° |
| 2026-04-30 19:48 | 9.03428 | 39.07501 | 12002 ft | 291 kts | 155° |
| 2026-04-30 19:48 | 9.01527 | 39.08006 | 11996 ft | 279 kts | 172° |
| 2026-04-30 19:49 | 8.99621 | 39.07960 | 11993 ft | 267 kts | 188° |
| 2026-04-30 19:49 | 8.96383 | 39.06518 | 11985 ft | 248 kts | 218° |
| 2026-04-30 19:49 | 8.95297 | 39.05252 | 12025 ft | 232 kts | 240° |
| 2026-04-30 19:50 | 8.94650 | 39.03838 | 12324 ft | 218 kts | 249° |
| 2026-04-30 19:50 | 8.94080 | 39.02386 | 12577 ft | 227 kts | 249° |
| 2026-04-30 19:50 | 8.93479 | 39.00899 | 13036 ft | 233 kts | 248° |
| 2026-04-30 19:50 | 8.92847 | 38.99386 | 13630 ft | 234 kts | 248° |
| 2026-04-30 19:51 | 8.92206 | 38.97874 | 13950 ft | 234 kts | 248° |
| 2026-04-30 19:51 | 8.91560 | 38.96365 | 14017 ft | 234 kts | 248° |
| 2026-04-30 19:51 | 8.90909 | 38.94851 | 14031 ft | 235 kts | 248° |
| 2026-04-30 19:51 | 8.90257 | 38.93338 | 14031 ft | 235 kts | 248° |
| 2026-04-30 19:52 | 8.89602 | 38.91820 | 14026 ft | 235 kts | 248° |
| 2026-04-30 19:52 | 8.88949 | 38.90306 | 14001 ft | 236 kts | 248° |
| 2026-04-30 19:52 | 8.88274 | 38.88740 | 13501 ft | 249 kts | 248° |
| 2026-04-30 19:52 | 8.87579 | 38.87127 | 13132 ft | 250 kts | 248° |
| 2026-04-30 19:53 | 8.86896 | 38.85548 | 13034 ft | 238 kts | 247° |
| 2026-04-30 19:53 | 8.86217 | 38.83978 | 13041 ft | 258 kts | 247° |
| 2026-04-30 19:53 | 8.85469 | 38.82246 | 13015 ft | 278 kts | 247° |
| 2026-04-30 19:53 | 8.84683 | 38.80428 | 12998 ft | 285 kts | 247° |
| 2026-04-30 19:54 | 8.83885 | 38.78586 | 12961 ft | 286 kts | 247° |
| 2026-04-30 19:54 | 8.83098 | 38.76771 | 12852 ft | 279 kts | 247° |
| 2026-04-30 19:54 | 8.82325 | 38.74986 | 12736 ft | 274 kts | 247° |
| 2026-04-30 19:54 | 8.81575 | 38.73252 | 12632 ft | 264 kts | 247° |
| 2026-04-30 19:55 | 8.80838 | 38.71551 | 12573 ft | 267 kts | 247° |
| 2026-04-30 19:55 | 8.80101 | 38.69850 | 12525 ft | 267 kts | 247° |
| 2026-04-30 19:55 | 8.79352 | 38.68118 | 12513 ft | 269 kts | 247° |
| 2026-04-30 19:55 | 8.78821 | 38.66324 | 12504 ft | 264 kts | 265° |
| 2026-04-30 19:56 | 8.79058 | 38.64533 | 12472 ft | 252 kts | 292° |
| 2026-04-30 19:56 | 8.79759 | 38.62963 | 12360 ft | 237 kts | 298° |
| 2026-04-30 19:56 | 8.80626 | 38.61628 | 12140 ft | 219 kts | 315° |
| 2026-04-30 19:56 | 8.81798 | 38.60758 | 11922 ft | 202 kts | 338° |
| 2026-04-30 19:57 | 8.83120 | 38.60414 | 11599 ft | 193 kts | 359° |
| 2026-04-30 19:57 | 8.84432 | 38.60505 | 11258 ft | 188 kts | 12° |
| 2026-04-30 19:57 | 8.85715 | 38.60732 | 10900 ft | 186 kts | 13° |
| 2026-04-30 19:57 | 8.86950 | 38.61087 | 10533 ft | 183 kts | 25° |
| 2026-04-30 19:58 | 8.88039 | 38.61728 | 10168 ft | 180 kts | 38° |
| 2026-04-30 19:58 | 8.89039 | 38.62472 | 9883 ft | 178 kts | 39° |
| 2026-04-30 19:58 | 8.90039 | 38.63225 | 9829 ft | 180 kts | 38° |
| 2026-04-30 19:58 | 8.91046 | 38.63978 | 9748 ft | 180 kts | 38° |
| 2026-04-30 19:59 | 8.92048 | 38.64732 | 9627 ft | 179 kts | 39° |
| 2026-04-30 19:59 | 8.92879 | 38.65655 | 9509 ft | 178 kts | 57° |
| 2026-04-30 19:59 | 8.93981 | 38.67559 | 9433 ft | 165 kts | 61° |
| 2026-04-30 20:00 | 8.94512 | 38.68615 | 9431 ft | 163 kts | 70° |
| 2026-04-30 20:00 | 8.94814 | 38.69725 | 9370 ft | 165 kts | 76° |
| 2026-04-30 20:00 | 8.95121 | 38.70836 | 9155 ft | 162 kts | 73° |
| 2026-04-30 20:00 | 8.95468 | 38.71916 | 8948 ft | 161 kts | 71° |
| 2026-04-30 20:01 | 8.96168 | 38.74061 | 8524 ft | 160 kts | 72° |
| 2026-04-30 20:01 | 8.96475 | 38.75072 | 8327 ft | 161 kts | 72° |
| 2026-04-30 20:01 | 8.96802 | 38.76179 | 8093 ft | 163 kts | 71° |
| 2026-04-30 20:02 | 8.97426 | 38.78364 | 7664 ft | 161 kts | 69° |
| 2026-04-30 20:02 | 8.97764 | 38.79426 | 7625 ft | 155 kts | 68° |
| 2026-04-30 20:03 | 8.98091 | 38.80527 | 7623 ft | 5 kts | 77° |
| 2026-04-30 20:03 | 8.98108 | 38.80601 | 7622 ft | 21 kts | 76° |
| 2026-04-30 20:03 | 8.98156 | 38.80675 | 7622 ft | 6 kts | 34° |
| 2026-04-30 20:03 | 8.98186 | 38.80693 | 7622 ft | 2 kts | 18° |
| 2026-04-30 20:04 | 8.98190 | 38.80692 | 7622 ft | 1 kts | 355° |
| 2026-04-30 20:04 | 8.98191 | 38.80691 | 7622 ft | 0 kts | 347° |
| 2026-04-30 20:04 | 8.98195 | 38.80685 | 7622 ft | 2 kts | 315° |
| 2026-04-30 20:05 | 8.98193 | 38.80606 | 7623 ft | 9 kts | 256° |
| 2026-04-30 20:05 | 8.98180 | 38.80551 | 7623 ft | 7 kts | 255° |
| 2026-04-30 20:05 | 8.98147 | 38.80423 | 7623 ft | 12 kts | 256° |
| 2026-04-30 20:06 | 8.98122 | 38.80337 | 7623 ft | 12 kts | 252° |
| 2026-04-30 20:06 | 8.98102 | 38.80266 | 7624 ft | 9 kts | 256° |
| 2026-04-30 20:06 | 8.98096 | 38.80211 | 7624 ft | 7 kts | 277° |
| 2026-04-30 20:06 | 8.98124 | 38.80149 | 7624 ft | 10 kts | 312° |
| 2026-04-30 20:07 | 8.98175 | 38.80121 | 7624 ft | 8 kts | 342° |
| 2026-04-30 20:07 | 8.98239 | 38.80091 | 7624 ft | 12 kts | 317° |
| 2026-04-30 20:07 | 8.98241 | 38.79964 | 7624 ft | 7 kts | 252° |
| 2026-04-30 20:08 | 8.98232 | 38.79925 | 7624 ft | 4 kts | 269° |
| 2026-04-30 20:08 | 8.98241 | 38.79905 | 7624 ft | 2 kts | 304° |
| 2026-04-30 20:08 | 8.98271 | 38.79891 | 7624 ft | 5 kts | 344° |
| 2026-04-30 20:08 | 8.98288 | 38.79886 | 7624 ft | 1 kts | 343° |
| 2026-04-30 20:09 | 8.98289 | 38.79886 | 7624 ft | 0 kts | 343° |